Time;durP1;ratioP1;P1;durP2;ratioP2;P2;SDS_P1;SDS_P2;PMS_P1;PMS_P2;Temp;Humidity;BMP_temperature;BMP_pressure;BME280_temperature;BME280_humidity;BME280_pressure;Samples;Min_cycle;Max_cycle;Signal;HPM_P1;HPM_P2
2020/12/15 00:08:08;;;;;;;2.83;1.17;;;12.10;99.90;;;;;;20941999;28;20256;-72
2020/12/15 00:18:16;;;;;;;1.63;1.13;;;12.20;99.90;;;;;;20941143;28;20185;-72
2020/12/15 00:28:20;;;;;;;3.80;0.80;;;12.10;99.90;;;;;;20903099;28;20308;-72
2020/12/15 00:38:22;;;;;;;0.80;0.80;;;12.30;99.90;;;;;;20963401;28;20284;-72
2020/12/15 00:48:33;;;;;;;6.07;1.47;;;12.40;99.90;;;;;;20982900;28;20215;-72
2020/12/15 00:58:37;;;;;;;1.23;1.13;;;12.40;99.90;;;;;;20968310;28;20295;-73
2020/12/15 01:08:41;;;;;;;1.80;1.20;;;12.20;99.90;;;;;;20894295;22;20236;-76
2020/12/15 01:18:51;;;;;;;0.53;0.40;;;12.20;99.90;;;;;;20857186;28;20189;-76
2020/12/15 01:28:54;;;;;;;0.87;0.40;;;12.30;99.90;;;;;;20852075;28;20312;-77
2020/12/15 01:38:57;;;;;;;4.57;0.67;;;12.10;99.90;;;;;;20869648;28;20199;-77
2020/12/15 01:49:03;;;;;;;0.93;0.93;;;11.80;99.90;;;;;;20859910;28;20226;-75
2020/12/15 02:09:16;;;;;;;0.40;0.40;;;12.10;99.90;;;;;;20729863;28;20234;-70
2020/12/15 02:19:19;;;;;;;1.80;1.17;;;12.10;99.90;;;;;;20747123;28;20234;-72
2020/12/15 02:29:22;;;;;;;1.13;0.50;;;11.90;99.90;;;;;;20747165;28;20226;-73
2020/12/15 02:39:25;;;;;;;3.37;1.43;;;11.70;99.90;;;;;;20746583;28;20711;-73
2020/12/15 02:49:35;;;;;;;1.13;0.93;;;11.70;99.90;;;;;;20744937;28;20321;-73
2020/12/15 02:59:37;;;;;;;0.80;0.40;;;11.60;99.90;;;;;;20745328;28;20306;-73
2020/12/15 03:09:41;;;;;;;19.70;1.57;;;11.70;99.90;;;;;;20744066;28;20226;-72
2020/12/15 03:19:53;;;;;;;1.27;0.60;;;11.20;99.90;;;;;;20743725;28;20253;-73
2020/12/15 03:29:56;;;;;;;0.20;0.10;;;11.10;99.90;;;;;;20742651;28;20631;-73
2020/12/15 03:39:59;;;;;;;0.20;0.10;;;11.10;99.90;;;;;;20741471;28;20195;-73
2020/12/15 03:50:09;;;;;;;0.47;0.23;;;11.10;99.90;;;;;;20741164;28;20269;-72
2020/12/15 04:00:11;;;;;;;2.73;0.40;;;10.80;99.90;;;;;;20739533;28;20238;-73
2020/12/15 04:10:17;;;;;;;0.60;0.33;;;11.00;99.90;;;;;;20739391;28;20219;-72
2020/12/15 04:20:25;;;;;;;0.30;0.20;;;11.30;99.90;;;;;;20739583;28;20202;-73
2020/12/15 04:30:28;;;;;;;1.13;0.97;;;11.40;99.90;;;;;;20738871;28;20233;-72
2020/12/15 04:40:33;;;;;;;0.30;0.23;;;11.50;99.90;;;;;;20734676;28;20234;-73
2020/12/15 04:50:49;;;;;;;0.20;0.00;;;11.40;99.90;;;;;;20655973;28;20539;-73
2020/12/15 05:00:51;;;;;;;1.20;0.73;;;11.50;99.90;;;;;;20656458;28;20255;-72
2020/12/15 05:10:55;;;;;;;1.13;1.07;;;12.00;99.90;;;;;;20654427;28;20771;-73
2020/12/15 05:20:58;;;;;;;1.10;0.33;;;12.10;99.90;;;;;;20653794;28;20649;-73
2020/12/15 05:31:01;;;;;;;0.50;0.20;;;12.30;99.90;;;;;;20654479;28;20720;-71
2020/12/15 05:41:06;;;;;;;0.30;0.30;;;12.40;99.90;;;;;;20705086;28;20221;-73
2020/12/15 05:51:12;;;;;;;0.30;0.30;;;12.40;99.90;;;;;;20668190;28;20235;-73
2020/12/15 06:01:15;;;;;;;0.73;0.60;;;12.50;99.90;;;;;;20651854;28;20334;-73
2020/12/15 06:11:21;;;;;;;0.20;0.00;;;12.60;99.90;;;;;;20651413;28;20195;-72
2020/12/15 06:21:29;;;;;;;0.20;0.00;;;12.70;99.90;;;;;;20651535;28;20254;-73
2020/12/15 06:31:34;;;;;;;0.23;0.13;;;12.80;99.90;;;;;;20669217;28;20215;-73
2020/12/15 06:41:37;;;;;;;8.30;0.87;;;12.90;99.90;;;;;;20745164;28;20330;-72
2020/12/15 06:51:56;;;;;;;1.03;0.67;;;13.00;99.90;;;;;;20759651;28;20198;-73
2020/12/15 07:02:10;;;;;;;5.57;1.30;;;13.00;99.90;;;;;;20738712;28;20690;-73
2020/12/15 07:12:15;;;;;;;0.27;0.27;;;13.10;99.90;;;;;;20704245;28;20682;-72
2020/12/15 07:22:22;;;;;;;2.13;0.70;;;12.80;99.90;;;;;;20732505;28;20242;-71
2020/12/15 07:32:28;;;;;;;1.03;0.83;;;12.70;99.90;;;;;;20738423;28;20234;-73
2020/12/15 07:42:32;;;;;;;0.47;0.47;;;12.50;99.90;;;;;;20737469;28;20231;-71
2020/12/15 07:52:37;;;;;;;0.40;0.40;;;12.40;99.90;;;;;;20738839;28;20726;-70
2020/12/15 08:02:41;;;;;;;0.20;0.20;;;12.40;99.90;;;;;;20735711;28;20249;-71
2020/12/15 08:12:44;;;;;;;0.20;0.10;;;12.70;99.90;;;;;;20736417;28;20225;-71
2020/12/15 08:22:50;;;;;;;1.47;1.37;;;13.10;99.90;;;;;;20734393;28;20250;-73
2020/12/15 08:32:54;;;;;;;0.93;0.40;;;13.90;99.90;;;;;;20734077;28;20703;-77
2020/12/15 08:42:59;;;;;;;3.30;0.63;;;14.60;99.90;;;;;;20720794;28;20639;-72
2020/12/15 08:53:07;;;;;;;4.53;1.40;;;14.80;99.90;;;;;;20658954;28;20416;-73
2020/12/15 09:03:11;;;;;;;0.60;0.60;;;15.30;99.90;;;;;;20725267;28;20711;-70
2020/12/15 09:13:16;;;;;;;1.67;0.47;;;15.30;99.90;;;;;;20732063;28;20202;-77
2020/12/15 09:23:26;;;;;;;1.20;1.07;;;15.30;99.90;;;;;;20739213;28;21043;-72
2020/12/15 09:33:30;;;;;;;0.63;0.63;;;15.40;99.90;;;;;;20732104;28;20193;-72
2020/12/15 09:43:33;;;;;;;0.30;0.30;;;15.70;99.90;;;;;;20753818;28;20240;-72
2020/12/15 09:53:37;;;;;;;2.93;1.40;;;15.90;99.90;;;;;;20812713;28;20199;-74
2020/12/15 10:03:39;;;;;;;1.63;1.53;;;16.30;99.90;;;;;;20822096;28;20302;-74
2020/12/15 10:13:43;;;;;;;1.03;0.93;;;16.50;99.90;;;;;;20827883;28;20191;-73
2020/12/15 10:23:48;;;;;;;0.20;0.10;;;17.00;99.90;;;;;;20826006;28;20270;-75
2020/12/15 10:33:52;;;;;;;7.57;0.77;;;17.60;99.90;;;;;;20789454;28;20230;-69
2020/12/15 10:43:54;;;;;;;0.50;0.30;;;17.70;99.90;;;;;;20746419;28;20322;-74
2020/12/15 10:53:58;;;;;;;0.30;0.20;;;17.20;99.90;;;;;;20739785;28;20286;-72
2020/12/15 11:04:01;;;;;;;0.37;0.37;;;17.60;99.90;;;;;;20741007;28;20314;-72
2020/12/15 11:14:06;;;;;;;5.23;1.30;;;18.50;99.90;;;;;;20739005;28;20601;-70
2020/12/15 11:24:23;;;;;;;1.13;0.73;;;19.10;99.90;;;;;;20738360;28;20667;-74
2020/12/15 11:34:29;;;;;;;1.17;1.17;;;19.40;99.90;;;;;;20737075;28;20531;-74
2020/12/15 11:44:32;;;;;;;1.87;1.40;;;20.50;99.90;;;;;;20733413;28;20700;-76
2020/12/15 11:54:39;;;;;;;2.27;2.07;;;20.70;99.90;;;;;;20737585;28;20269;-74
2020/12/15 12:04:42;;;;;;;1.00;0.97;;;20.90;99.90;;;;;;20738520;28;20314;-72
2020/12/15 12:14:45;;;;;;;1.23;0.90;;;20.20;99.90;;;;;;20736459;28;20604;-74
2020/12/15 12:24:55;;;;;;;0.93;0.87;;;19.60;99.90;;;;;;20734884;28;20316;-73
2020/12/15 12:34:58;;;;;;;0.47;0.27;;;20.30;99.90;;;;;;20735660;28;20194;-74
2020/12/15 12:45:01;;;;;;;1.00;0.90;;;18.60;99.90;;;;;;20775131;28;20324;-74
2020/12/15 12:55:12;;;;;;;1.80;0.90;;;19.90;99.90;;;;;;20805184;28;20212;-75
2020/12/15 13:05:15;;;;;;;0.20;0.20;;;20.40;99.90;;;;;;20766985;28;20368;-73
2020/12/15 13:15:19;;;;;;;1.87;1.23;;;19.20;99.90;;;;;;20732742;28;20269;-74
2020/12/15 13:25:30;;;;;;;1.67;1.05;;;18.10;99.90;;;;;;20721181;28;20444;-73
2020/12/15 13:35:34;;;;;;;0.47;0.47;;;19.20;99.90;;;;;;20731310;28;20663;-73
2020/12/15 13:45:36;;;;;;;1.57;0.70;;;22.30;99.90;;;;;;20744929;28;20226;-71
2020/12/15 13:55:51;;;;;;;0.73;0.40;;;22.50;99.90;;;;;;20745680;28;20277;-72
2020/12/15 14:05:54;;;;;;;1.08;0.68;;;23.80;99.90;;;;;;20744955;28;20258;-75
2020/12/15 14:15:57;;;;;;;1.05;0.55;;;24.50;99.90;;;;;;20746083;28;20220;-73
2020/12/15 14:26:10;;;;;;;0.50;0.50;;;23.90;99.90;;;;;;20745229;28;20288;-72
2020/12/15 14:36:14;;;;;;;2.05;0.77;;;23.90;99.90;;;;;;20745914;28;20199;-70
2020/12/15 14:46:16;;;;;;;0.40;0.40;;;23.00;99.90;;;;;;20742821;28;20223;-72
2020/12/15 14:56:27;;;;;;;0.33;0.13;;;21.00;99.90;;;;;;20743214;28;20255;-72
2020/12/15 15:06:30;;;;;;;0.63;0.50;;;20.90;99.90;;;;;;20743034;28;20300;-72
2020/12/15 15:16:34;;;;;;;1.27;0.43;;;21.20;99.90;;;;;;20752052;28;20186;-73
2020/12/15 15:26:45;;;;;;;0.80;0.47;;;19.90;99.90;;;;;;20821638;28;20246;-72
2020/12/15 15:36:49;;;;;;;0.80;0.33;;;20.90;99.90;;;;;;20785864;28;20199;-71
2020/12/15 15:46:51;;;;;;;0.20;0.07;;;21.30;99.90;;;;;;20753102;28;20317;-72
2020/12/15 15:57:01;;;;;;;0.20;0.10;;;19.50;99.90;;;;;;20737061;28;20195;-71
2020/12/15 16:07:06;;;;;;;0.40;0.40;;;18.40;99.90;;;;;;20735481;28;20281;-72
2020/12/15 16:17:09;;;;;;;0.20;0.00;;;17.80;99.90;;;;;;20735894;28;20286;-72
2020/12/15 16:27:18;;;;;;;0.20;0.10;;;17.50;99.90;;;;;;20727102;28;20254;-72
2020/12/15 16:37:22;;;;;;;0.57;0.40;;;17.10;99.90;;;;;;20729932;28;20262;-71
2020/12/15 16:47:24;;;;;;;0.53;0.30;;;16.80;99.90;;;;;;20729262;28;20222;-71
2020/12/15 16:57:49;;;;;;;0.40;0.40;;;16.50;99.90;;;;;;20728944;28;20648;-73
2020/12/15 17:07:51;;;;;;;0.30;0.30;;;16.20;99.90;;;;;;20727835;28;20353;-70
2020/12/15 17:17:55;;;;;;;1.13;0.70;;;16.00;99.90;;;;;;20729157;28;20301;-72
2020/12/15 17:27:58;;;;;;;0.80;0.80;;;15.30;99.90;;;;;;20742844;28;20724;-72
2020/12/15 17:38:01;;;;;;;0.77;0.77;;;15.40;99.90;;;;;;20727391;28;20290;-73
2020/12/15 17:48:06;;;;;;;0.27;0.20;;;14.90;99.90;;;;;;20727734;28;20239;-72
2020/12/15 17:58:13;;;;;;;0.60;0.43;;;14.70;99.90;;;;;;20760602;28;20202;-72
2020/12/15 18:08:18;;;;;;;0.50;0.50;;;14.50;99.90;;;;;;20759359;28;20302;-71
2020/12/15 18:18:21;;;;;;;1.57;1.13;;;14.50;99.90;;;;;;20808748;28;20226;-71
2020/12/15 18:28:29;;;;;;;0.97;0.67;;;14.60;99.90;;;;;;20820867;28;20245;-69
2020/12/15 18:38:37;;;;;;;1.70;1.17;;;14.40;99.90;;;;;;20756174;28;20686;-71
2020/12/15 18:48:45;;;;;;;1.13;1.00;;;14.00;99.90;;;;;;20790613;28;20233;-70
2020/12/15 18:58:53;;;;;;;4.27;0.70;;;13.90;99.90;;;;;;20820756;28;20197;-73
2020/12/15 19:09:00;;;;;;;5.70;0.93;;;13.60;99.90;;;;;;20818004;28;20226;-70
2020/12/15 19:19:10;;;;;;;0.63;0.63;;;12.90;99.90;;;;;;20738830;28;20191;-72
2020/12/15 19:29:17;;;;;;;1.50;1.40;;;13.00;99.90;;;;;;20737127;28;20284;-72
2020/12/15 19:39:26;;;;;;;0.87;0.87;;;12.90;99.90;;;;;;20735547;28;20191;-72
2020/12/15 19:49:33;;;;;;;0.77;0.77;;;12.70;99.90;;;;;;20736986;28;20222;-73
2020/12/15 19:59:42;;;;;;;3.97;2.30;;;12.40;99.90;;;;;;20735051;28;20231;-72
2020/12/15 20:09:50;;;;;;;4.33;2.53;;;11.90;99.90;;;;;;20750367;28;20314;-72
2020/12/15 20:20:00;;;;;;;3.83;1.97;;;11.90;99.90;;;;;;20733295;28;20293;-72
2020/12/15 20:30:07;;;;;;;1.93;1.20;;;11.70;99.90;;;;;;20733355;28;20230;-72
2020/12/15 20:40:16;;;;;;;7.07;2.03;;;11.40;99.90;;;;;;20732613;28;20195;-71
2020/12/15 20:50:23;;;;;;;3.17;2.13;;;11.50;99.90;;;;;;20730991;28;20237;-73
2020/12/15 21:00:32;;;;;;;6.07;1.33;;;11.10;99.90;;;;;;20730081;28;20237;-73
2020/12/15 21:10:39;;;;;;;4.73;1.37;;;10.70;99.90;;;;;;20731806;28;20634;-73
2020/12/15 21:20:49;;;;;;;2.70;2.00;;;10.60;99.90;;;;;;20730197;28;20213;-71
2020/12/15 21:30:56;;;;;;;0.67;0.67;;;10.60;99.90;;;;;;20730536;28;20230;-72
2020/12/15 21:41:05;;;;;;;1.80;1.63;;;10.10;99.90;;;;;;20730510;28;20214;-73
2020/12/15 21:51:09;;;;;;;0.23;0.17;;;10.30;99.90;;;;;;20745878;28;20709;-73
2020/12/15 22:01:13;;;;;;;2.70;1.20;;;11.00;99.90;;;;;;20759350;28;20234;-74
2020/12/15 22:11:17;;;;;;;1.83;1.47;;;10.40;99.90;;;;;;20746886;28;20309;-75
2020/12/15 22:21:22;;;;;;;9.43;2.30;;;10.60;99.90;;;;;;20747899;28;20206;-77
2020/12/15 22:31:25;;;;;;;0.97;0.60;;;10.90;99.90;;;;;;20747825;28;20341;-74
2020/12/15 22:41:29;;;;;;;1.23;0.93;;;11.10;99.90;;;;;;20745969;28;20218;-73
2020/12/15 22:51:31;;;;;;;1.40;0.97;;;11.10;99.90;;;;;;20745296;28;20632;-74
2020/12/15 23:01:35;;;;;;;1.13;1.03;;;11.00;99.90;;;;;;20759939;28;20238;-74
2020/12/15 23:11:38;;;;;;;0.67;0.50;;;11.20;99.90;;;;;;20756960;28;20223;-73
2020/12/15 23:21:44;;;;;;;1.20;1.13;;;11.40;99.90;;;;;;20742316;28;20257;-73
2020/12/15 23:31:46;;;;;;;1.33;1.23;;;11.30;99.90;;;;;;20742442;28;20222;-72
2020/12/15 23:41:50;;;;;;;1.43;1.33;;;11.40;99.90;;;;;;20741265;28;20217;-73
2020/12/15 23:51:53;;;;;;;1.83;1.43;;;11.10;99.90;;;;;;20755423;28;20226;-73
